sensor_id;sensor_type;location;lat;lon;timestamp;P1;durP1;ratioP1;P2;durP2;ratioP2
5987;SDS011;3021;51.000;6.980;2023-05-29T00:00:12;8.40;;;3.47;;
5987;SDS011;3021;51.000;6.980;2023-05-29T00:02:39;9.30;;;3.50;;
5987;SDS011;3021;51.000;6.980;2023-05-29T00:05:09;10.30;;;3.88;;
5987;SDS011;3021;51.000;6.980;2023-05-29T00:07:36;5.90;;;3.35;;
5987;SDS011;3021;51.000;6.980;2023-05-29T00:10:02;9.35;;;4.05;;
5987;SDS011;3021;51.000;6.980;2023-05-29T00:12:29;7.90;;;3.75;;
5987;SDS011;3021;51.000;6.980;2023-05-29T00:14:54;10.45;;;4.20;;
5987;SDS011;3021;51.000;6.980;2023-05-29T00:17:20;7.72;;;3.72;;
5987;SDS011;3021;51.000;6.980;2023-05-29T00:19:45;8.27;;;3.58;;
5987;SDS011;3021;51.000;6.980;2023-05-29T00:22:11;9.27;;;3.78;;
5987;SDS011;3021;51.000;6.980;2023-05-29T00:24:36;9.40;;;4.63;;
5987;SDS011;3021;51.000;6.980;2023-05-29T00:27:01;7.45;;;3.85;;
5987;SDS011;3021;51.000;6.980;2023-05-29T00:29:27;10.77;;;4.30;;
5987;SDS011;3021;51.000;6.980;2023-05-29T00:31:52;6.53;;;3.67;;
5987;SDS011;3021;51.000;6.980;2023-05-29T00:34:21;8.77;;;4.05;;
5987;SDS011;3021;51.000;6.980;2023-05-29T00:36:48;6.88;;;3.53;;
5987;SDS011;3021;51.000;6.980;2023-05-29T00:39:13;8.02;;;3.95;;
5987;SDS011;3021;51.000;6.980;2023-05-29T00:41:39;8.55;;;3.83;;
5987;SDS011;3021;51.000;6.980;2023-05-29T00:44:04;8.25;;;3.45;;
5987;SDS011;3021;51.000;6.980;2023-05-29T00:46:30;6.40;;;3.75;;
5987;SDS011;3021;51.000;6.980;2023-05-29T00:48:57;7.72;;;4.07;;
5987;SDS011;3021;51.000;6.980;2023-05-29T00:51:23;9.82;;;3.80;;
5987;SDS011;3021;51.000;6.980;2023-05-29T00:53:50;6.13;;;3.78;;
5987;SDS011;3021;51.000;6.980;2023-05-29T00:56:17;9.18;;;3.70;;
5987;SDS011;3021;51.000;6.980;2023-05-29T00:58:43;8.30;;;3.97;;
5987;SDS011;3021;51.000;6.980;2023-05-29T01:01:09;7.10;;;3.60;;
5987;SDS011;3021;51.000;6.980;2023-05-29T01:03:35;9.10;;;3.75;;
5987;SDS011;3021;51.000;6.980;2023-05-29T01:06:01;10.73;;;4.10;;
5987;SDS011;3021;51.000;6.980;2023-05-29T01:08:28;7.78;;;3.80;;
5987;SDS011;3021;51.000;6.980;2023-05-29T01:10:54;7.82;;;4.00;;
5987;SDS011;3021;51.000;6.980;2023-05-29T01:13:26;10.48;;;4.00;;
5987;SDS011;3021;51.000;6.980;2023-05-29T01:15:57;7.88;;;3.50;;
5987;SDS011;3021;51.000;6.980;2023-05-29T01:21:46;14.05;;;4.30;;
5987;SDS011;3021;51.000;6.980;2023-05-29T01:24:44;13.13;;;4.45;;
5987;SDS011;3021;51.000;6.980;2023-05-29T01:27:15;7.35;;;3.58;;
5987;SDS011;3021;51.000;6.980;2023-05-29T01:29:43;8.13;;;4.32;;
5987;SDS011;3021;51.000;6.980;2023-05-29T01:32:09;8.05;;;4.00;;
5987;SDS011;3021;51.000;6.980;2023-05-29T01:34:36;11.52;;;4.85;;
5987;SDS011;3021;51.000;6.980;2023-05-29T01:37:01;8.65;;;4.18;;
5987;SDS011;3021;51.000;6.980;2023-05-29T01:39:26;7.90;;;3.95;;
5987;SDS011;3021;51.000;6.980;2023-05-29T01:41:52;8.65;;;4.10;;
5987;SDS011;3021;51.000;6.980;2023-05-29T01:44:19;8.02;;;4.57;;
5987;SDS011;3021;51.000;6.980;2023-05-29T01:46:46;5.43;;;3.63;;
5987;SDS011;3021;51.000;6.980;2023-05-29T01:49:13;7.70;;;4.43;;
5987;SDS011;3021;51.000;6.980;2023-05-29T01:51:40;9.40;;;4.45;;
5987;SDS011;3021;51.000;6.980;2023-05-29T01:54:06;14.18;;;7.85;;
5987;SDS011;3021;51.000;6.980;2023-05-29T01:56:32;11.50;;;8.32;;
5987;SDS011;3021;51.000;6.980;2023-05-29T01:59:00;16.58;;;11.05;;
5987;SDS011;3021;51.000;6.980;2023-05-29T02:01:27;14.45;;;9.82;;
5987;SDS011;3021;51.000;6.980;2023-05-29T02:03:53;13.85;;;8.93;;
5987;SDS011;3021;51.000;6.980;2023-05-29T02:06:18;10.73;;;6.55;;
5987;SDS011;3021;51.000;6.980;2023-05-29T02:08:44;14.80;;;6.53;;
5987;SDS011;3021;51.000;6.980;2023-05-29T02:11:10;11.93;;;4.07;;
5987;SDS011;3021;51.000;6.980;2023-05-29T02:13:36;6.10;;;4.22;;
5987;SDS011;3021;51.000;6.980;2023-05-29T02:16:02;8.52;;;4.30;;
5987;SDS011;3021;51.000;6.980;2023-05-29T02:18:27;9.68;;;4.10;;
5987;SDS011;3021;51.000;6.980;2023-05-29T02:20:53;9.65;;;4.50;;
5987;SDS011;3021;51.000;6.980;2023-05-29T02:23:18;8.65;;;4.25;;
5987;SDS011;3021;51.000;6.980;2023-05-29T02:25:44;8.30;;;4.22;;
5987;SDS011;3021;51.000;6.980;2023-05-29T02:28:10;8.40;;;5.15;;
5987;SDS011;3021;51.000;6.980;2023-05-29T02:30:35;10.60;;;4.80;;
5987;SDS011;3021;51.000;6.980;2023-05-29T02:33:00;12.95;;;4.95;;
5987;SDS011;3021;51.000;6.980;2023-05-29T02:35:26;9.13;;;4.40;;
5987;SDS011;3021;51.000;6.980;2023-05-29T02:37:51;11.00;;;4.20;;
5987;SDS011;3021;51.000;6.980;2023-05-29T02:40:18;10.55;;;4.47;;
5987;SDS011;3021;51.000;6.980;2023-05-29T02:42:44;9.90;;;4.28;;
5987;SDS011;3021;51.000;6.980;2023-05-29T02:45:09;7.45;;;4.05;;
5987;SDS011;3021;51.000;6.980;2023-05-29T02:47:35;11.90;;;4.97;;
5987;SDS011;3021;51.000;6.980;2023-05-29T02:50:01;10.32;;;4.35;;
5987;SDS011;3021;51.000;6.980;2023-05-29T02:52:27;8.40;;;4.40;;
5987;SDS011;3021;51.000;6.980;2023-05-29T02:54:53;11.95;;;4.30;;
5987;SDS011;3021;51.000;6.980;2023-05-29T02:57:19;10.07;;;5.10;;
5987;SDS011;3021;51.000;6.980;2023-05-29T02:59:45;15.15;;;4.55;;
5987;SDS011;3021;51.000;6.980;2023-05-29T03:02:11;11.35;;;5.05;;
5987;SDS011;3021;51.000;6.980;2023-05-29T03:04:36;12.55;;;5.38;;
5987;SDS011;3021;51.000;6.980;2023-05-29T03:07:01;11.95;;;4.93;;
5987;SDS011;3021;51.000;6.980;2023-05-29T03:09:27;9.88;;;4.85;;
5987;SDS011;3021;51.000;6.980;2023-05-29T03:11:52;8.52;;;4.43;;
5987;SDS011;3021;51.000;6.980;2023-05-29T03:14:17;11.07;;;5.85;;
5987;SDS011;3021;51.000;6.980;2023-05-29T03:16:43;9.38;;;5.05;;
5987;SDS011;3021;51.000;6.980;2023-05-29T03:19:09;11.68;;;5.32;;
5987;SDS011;3021;51.000;6.980;2023-05-29T03:21:35;12.63;;;6.03;;
5987;SDS011;3021;51.000;6.980;2023-05-29T03:24:01;14.32;;;5.63;;
5987;SDS011;3021;51.000;6.980;2023-05-29T03:26:27;12.90;;;5.40;;
5987;SDS011;3021;51.000;6.980;2023-05-29T03:28:53;12.90;;;4.75;;
5987;SDS011;3021;51.000;6.980;2023-05-29T03:31:18;13.68;;;5.47;;
5987;SDS011;3021;51.000;6.980;2023-05-29T03:33:43;9.57;;;4.00;;
5987;SDS011;3021;51.000;6.980;2023-05-29T03:36:10;8.75;;;4.70;;
5987;SDS011;3021;51.000;6.980;2023-05-29T03:38:36;11.30;;;4.78;;
5987;SDS011;3021;51.000;6.980;2023-05-29T03:41:01;9.43;;;4.03;;
5987;SDS011;3021;51.000;6.980;2023-05-29T03:43:26;7.07;;;3.83;;
5987;SDS011;3021;51.000;6.980;2023-05-29T03:45:52;14.23;;;4.28;;
5987;SDS011;3021;51.000;6.980;2023-05-29T03:48:17;11.18;;;4.32;;
5987;SDS011;3021;51.000;6.980;2023-05-29T03:50:44;10.23;;;4.60;;
5987;SDS011;3021;51.000;6.980;2023-05-29T03:53:11;13.63;;;4.60;;
5987;SDS011;3021;51.000;6.980;2023-05-29T03:55:37;11.68;;;5.05;;
5987;SDS011;3021;51.000;6.980;2023-05-29T03:58:02;12.27;;;4.25;;
5987;SDS011;3021;51.000;6.980;2023-05-29T04:00:27;9.55;;;4.07;;
5987;SDS011;3021;51.000;6.980;2023-05-29T04:02:54;14.68;;;4.90;;
5987;SDS011;3021;51.000;6.980;2023-05-29T04:05:20;11.00;;;4.50;;
5987;SDS011;3021;51.000;6.980;2023-05-29T04:07:45;9.35;;;3.95;;
5987;SDS011;3021;51.000;6.980;2023-05-29T04:10:10;13.30;;;4.80;;
5987;SDS011;3021;51.000;6.980;2023-05-29T04:12:36;12.45;;;4.93;;
5987;SDS011;3021;51.000;6.980;2023-05-29T04:15:01;15.15;;;4.90;;
5987;SDS011;3021;51.000;6.980;2023-05-29T04:17:26;13.55;;;4.93;;
5987;SDS011;3021;51.000;6.980;2023-05-29T04:19:52;12.65;;;4.65;;
5987;SDS011;3021;51.000;6.980;2023-05-29T04:22:17;13.07;;;5.10;;
5987;SDS011;3021;51.000;6.980;2023-05-29T04:24:43;18.00;;;4.97;;
5987;SDS011;3021;51.000;6.980;2023-05-29T04:27:08;19.27;;;5.22;;
5987;SDS011;3021;51.000;6.980;2023-05-29T04:29:38;16.55;;;4.95;;
5987;SDS011;3021;51.000;6.980;2023-05-29T04:32:07;19.15;;;5.80;;
5987;SDS011;3021;51.000;6.980;2023-05-29T04:34:34;13.13;;;5.57;;
5987;SDS011;3021;51.000;6.980;2023-05-29T04:37:00;12.93;;;5.10;;
5987;SDS011;3021;51.000;6.980;2023-05-29T04:39:25;14.55;;;6.30;;
5987;SDS011;3021;51.000;6.980;2023-05-29T04:41:50;14.65;;;5.03;;
5987;SDS011;3021;51.000;6.980;2023-05-29T04:44:16;15.95;;;5.05;;
5987;SDS011;3021;51.000;6.980;2023-05-29T04:46:42;13.60;;;5.40;;
5987;SDS011;3021;51.000;6.980;2023-05-29T04:49:12;18.52;;;6.32;;
5987;SDS011;3021;51.000;6.980;2023-05-29T04:51:40;19.02;;;6.90;;
5987;SDS011;3021;51.000;6.980;2023-05-29T04:54:06;16.88;;;6.88;;
5987;SDS011;3021;51.000;6.980;2023-05-29T04:56:34;15.10;;;6.75;;
5987;SDS011;3021;51.000;6.980;2023-05-29T04:58:59;17.65;;;6.93;;
5987;SDS011;3021;51.000;6.980;2023-05-29T05:01:24;17.60;;;6.45;;
5987;SDS011;3021;51.000;6.980;2023-05-29T05:03:50;17.58;;;5.32;;
5987;SDS011;3021;51.000;6.980;2023-05-29T05:06:17;13.80;;;5.25;;
5987;SDS011;3021;51.000;6.980;2023-05-29T05:08:43;15.93;;;4.47;;
5987;SDS011;3021;51.000;6.980;2023-05-29T05:11:09;15.68;;;5.00;;
5987;SDS011;3021;51.000;6.980;2023-05-29T05:13:34;18.77;;;5.68;;
5987;SDS011;3021;51.000;6.980;2023-05-29T05:16:00;17.95;;;5.65;;
5987;SDS011;3021;51.000;6.980;2023-05-29T05:18:26;17.75;;;5.78;;
5987;SDS011;3021;51.000;6.980;2023-05-29T05:20:51;14.05;;;4.82;;
5987;SDS011;3021;51.000;6.980;2023-05-29T05:23:16;13.73;;;5.22;;
5987;SDS011;3021;51.000;6.980;2023-05-29T05:25:42;14.23;;;4.95;;
5987;SDS011;3021;51.000;6.980;2023-05-29T05:28:08;14.15;;;5.40;;
5987;SDS011;3021;51.000;6.980;2023-05-29T05:30:34;13.73;;;4.78;;
5987;SDS011;3021;51.000;6.980;2023-05-29T05:33:00;13.82;;;5.40;;
5987;SDS011;3021;51.000;6.980;2023-05-29T05:35:25;17.38;;;5.03;;
5987;SDS011;3021;51.000;6.980;2023-05-29T05:37:50;12.50;;;4.63;;
5987;SDS011;3021;51.000;6.980;2023-05-29T05:40:15;11.13;;;4.40;;
5987;SDS011;3021;51.000;6.980;2023-05-29T05:42:41;12.57;;;4.05;;
5987;SDS011;3021;51.000;6.980;2023-05-29T05:45:06;12.15;;;4.57;;
5987;SDS011;3021;51.000;6.980;2023-05-29T05:47:32;11.98;;;4.40;;
5987;SDS011;3021;51.000;6.980;2023-05-29T05:49:58;12.70;;;4.13;;
5987;SDS011;3021;51.000;6.980;2023-05-29T05:52:24;10.55;;;4.72;;
5987;SDS011;3021;51.000;6.980;2023-05-29T05:54:50;11.38;;;3.83;;
5987;SDS011;3021;51.000;6.980;2023-05-29T05:57:16;15.93;;;4.03;;
5987;SDS011;3021;51.000;6.980;2023-05-29T05:59:41;10.70;;;4.22;;
5987;SDS011;3021;51.000;6.980;2023-05-29T06:02:07;12.07;;;4.55;;
5987;SDS011;3021;51.000;6.980;2023-05-29T06:04:32;17.92;;;4.40;;
5987;SDS011;3021;51.000;6.980;2023-05-29T06:06:57;14.30;;;4.03;;
5987;SDS011;3021;51.000;6.980;2023-05-29T06:09:23;12.18;;;3.60;;
5987;SDS011;3021;51.000;6.980;2023-05-29T06:11:49;11.05;;;4.10;;
5987;SDS011;3021;51.000;6.980;2023-05-29T06:14:15;12.23;;;4.03;;
5987;SDS011;3021;51.000;6.980;2023-05-29T06:16:41;13.13;;;3.47;;
5987;SDS011;3021;51.000;6.980;2023-05-29T06:19:06;12.35;;;3.97;;
5987;SDS011;3021;51.000;6.980;2023-05-29T06:21:32;11.32;;;3.58;;
5987;SDS011;3021;51.000;6.980;2023-05-29T06:23:57;10.02;;;3.33;;
5987;SDS011;3021;51.000;6.980;2023-05-29T06:26:23;11.50;;;3.75;;
5987;SDS011;3021;51.000;6.980;2023-05-29T06:28:50;14.25;;;3.65;;
5987;SDS011;3021;51.000;6.980;2023-05-29T06:31:16;15.18;;;4.13;;
5987;SDS011;3021;51.000;6.980;2023-05-29T06:33:41;12.38;;;3.95;;
5987;SDS011;3021;51.000;6.980;2023-05-29T06:36:07;12.48;;;3.78;;
5987;SDS011;3021;51.000;6.980;2023-05-29T06:38:32;9.07;;;3.45;;
5987;SDS011;3021;51.000;6.980;2023-05-29T06:40:58;9.82;;;3.45;;
5987;SDS011;3021;51.000;6.980;2023-05-29T06:43:23;10.20;;;3.80;;
5987;SDS011;3021;51.000;6.980;2023-05-29T06:45:48;9.43;;;3.50;;
5987;SDS011;3021;51.000;6.980;2023-05-29T06:48:14;12.02;;;3.90;;
5987;SDS011;3021;51.000;6.980;2023-05-29T06:50:39;10.35;;;3.67;;
5987;SDS011;3021;51.000;6.980;2023-05-29T06:53:04;10.65;;;3.65;;
5987;SDS011;3021;51.000;6.980;2023-05-29T06:55:30;10.52;;;3.97;;
5987;SDS011;3021;51.000;6.980;2023-05-29T06:57:55;11.10;;;3.78;;
5987;SDS011;3021;51.000;6.980;2023-05-29T07:00:21;10.63;;;3.47;;
5987;SDS011;3021;51.000;6.980;2023-05-29T07:02:46;12.48;;;3.70;;
5987;SDS011;3021;51.000;6.980;2023-05-29T07:05:11;15.45;;;3.75;;
5987;SDS011;3021;51.000;6.980;2023-05-29T07:07:37;11.15;;;3.83;;
5987;SDS011;3021;51.000;6.980;2023-05-29T07:10:02;10.65;;;4.07;;
5987;SDS011;3021;51.000;6.980;2023-05-29T07:12:28;15.85;;;4.22;;
5987;SDS011;3021;51.000;6.980;2023-05-29T07:14:53;11.15;;;4.15;;
5987;SDS011;3021;51.000;6.980;2023-05-29T07:17:18;13.40;;;4.03;;
5987;SDS011;3021;51.000;6.980;2023-05-29T07:19:44;11.40;;;4.10;;
5987;SDS011;3021;51.000;6.980;2023-05-29T07:22:09;13.18;;;4.15;;
5987;SDS011;3021;51.000;6.980;2023-05-29T07:24:35;9.60;;;4.18;;
5987;SDS011;3021;51.000;6.980;2023-05-29T07:27:00;11.75;;;4.05;;
5987;SDS011;3021;51.000;6.980;2023-05-29T07:29:26;15.45;;;4.20;;
5987;SDS011;3021;51.000;6.980;2023-05-29T07:31:51;13.55;;;3.40;;
5987;SDS011;3021;51.000;6.980;2023-05-29T07:34:17;9.52;;;3.97;;
5987;SDS011;3021;51.000;6.980;2023-05-29T07:39:23;14.75;;;4.35;;
5987;SDS011;3021;51.000;6.980;2023-05-29T07:41:49;13.25;;;4.32;;
5987;SDS011;3021;51.000;6.980;2023-05-29T07:44:15;13.23;;;4.43;;
5987;SDS011;3021;51.000;6.980;2023-05-29T07:46:40;14.75;;;5.07;;
5987;SDS011;3021;51.000;6.980;2023-05-29T07:49:05;9.27;;;3.72;;
5987;SDS011;3021;51.000;6.980;2023-05-29T07:51:31;14.55;;;3.95;;
5987;SDS011;3021;51.000;6.980;2023-05-29T07:53:57;13.93;;;3.95;;
5987;SDS011;3021;51.000;6.980;2023-05-29T07:56:22;11.25;;;3.75;;
5987;SDS011;3021;51.000;6.980;2023-05-29T07:58:48;16.83;;;4.28;;
5987;SDS011;3021;51.000;6.980;2023-05-29T08:01:13;10.80;;;4.07;;
5987;SDS011;3021;51.000;6.980;2023-05-29T08:03:38;12.05;;;4.00;;
5987;SDS011;3021;51.000;6.980;2023-05-29T08:06:06;14.85;;;4.18;;
5987;SDS011;3021;51.000;6.980;2023-05-29T08:08:31;10.98;;;4.85;;
5987;SDS011;3021;51.000;6.980;2023-05-29T08:10:57;13.23;;;4.32;;
5987;SDS011;3021;51.000;6.980;2023-05-29T08:13:22;13.55;;;4.15;;
5987;SDS011;3021;51.000;6.980;2023-05-29T08:15:47;12.50;;;3.83;;
5987;SDS011;3021;51.000;6.980;2023-05-29T08:18:13;11.20;;;3.78;;
5987;SDS011;3021;51.000;6.980;2023-05-29T08:20:38;10.15;;;3.92;;
5987;SDS011;3021;51.000;6.980;2023-05-29T08:23:03;13.60;;;3.97;;
5987;SDS011;3021;51.000;6.980;2023-05-29T08:25:29;8.18;;;3.45;;
5987;SDS011;3021;51.000;6.980;2023-05-29T08:27:54;12.52;;;3.90;;
5987;SDS011;3021;51.000;6.980;2023-05-29T08:30:19;12.48;;;3.60;;
5987;SDS011;3021;51.000;6.980;2023-05-29T08:32:45;11.52;;;4.05;;
5987;SDS011;3021;51.000;6.980;2023-05-29T08:35:11;9.82;;;3.50;;
5987;SDS011;3021;51.000;6.980;2023-05-29T08:37:36;13.52;;;3.83;;
5987;SDS011;3021;51.000;6.980;2023-05-29T08:40:02;12.52;;;4.25;;
5987;SDS011;3021;51.000;6.980;2023-05-29T08:42:33;9.27;;;4.00;;
5987;SDS011;3021;51.000;6.980;2023-05-29T08:45:05;11.10;;;3.50;;
5987;SDS011;3021;51.000;6.980;2023-05-29T08:47:34;9.63;;;3.45;;
5987;SDS011;3021;51.000;6.980;2023-05-29T08:50:01;9.55;;;3.38;;
5987;SDS011;3021;51.000;6.980;2023-05-29T08:52:28;8.13;;;3.33;;
5987;SDS011;3021;51.000;6.980;2023-05-29T08:54:56;9.98;;;3.53;;
5987;SDS011;3021;51.000;6.980;2023-05-29T08:57:23;13.98;;;3.67;;
5987;SDS011;3021;51.000;6.980;2023-05-29T08:59:50;7.70;;;3.28;;
5987;SDS011;3021;51.000;6.980;2023-05-29T09:02:17;9.73;;;3.38;;
5987;SDS011;3021;51.000;6.980;2023-05-29T09:04:42;10.15;;;3.45;;
5987;SDS011;3021;51.000;6.980;2023-05-29T09:07:13;9.43;;;3.22;;
5987;SDS011;3021;51.000;6.980;2023-05-29T09:09:39;10.27;;;3.72;;
5987;SDS011;3021;51.000;6.980;2023-05-29T09:12:05;8.32;;;3.60;;
5987;SDS011;3021;51.000;6.980;2023-05-29T09:17:01;12.52;;;3.40;;
5987;SDS011;3021;51.000;6.980;2023-05-29T09:19:27;9.18;;;3.45;;
5987;SDS011;3021;51.000;6.980;2023-05-29T09:21:59;10.45;;;3.50;;
5987;SDS011;3021;51.000;6.980;2023-05-29T09:24:27;11.32;;;3.50;;
5987;SDS011;3021;51.000;6.980;2023-05-29T09:26:53;6.35;;;3.10;;
5987;SDS011;3021;51.000;6.980;2023-05-29T09:29:18;12.73;;;3.55;;
5987;SDS011;3021;51.000;6.980;2023-05-29T09:31:47;12.07;;;3.78;;
5987;SDS011;3021;51.000;6.980;2023-05-29T09:34:12;10.52;;;4.10;;
5987;SDS011;3021;51.000;6.980;2023-05-29T09:36:38;11.50;;;4.07;;
5987;SDS011;3021;51.000;6.980;2023-05-29T09:39:04;10.15;;;3.55;;
5987;SDS011;3021;51.000;6.980;2023-05-29T09:41:29;10.00;;;3.55;;
5987;SDS011;3021;51.000;6.980;2023-05-29T09:43:56;10.85;;;3.47;;
5987;SDS011;3021;51.000;6.980;2023-05-29T09:46:25;7.85;;;3.53;;
5987;SDS011;3021;51.000;6.980;2023-05-29T09:48:51;11.25;;;3.63;;
5987;SDS011;3021;51.000;6.980;2023-05-29T09:51:22;15.80;;;3.90;;
5987;SDS011;3021;51.000;6.980;2023-05-29T09:53:49;9.45;;;3.55;;
5987;SDS011;3021;51.000;6.980;2023-05-29T09:56:18;12.48;;;3.72;;
5987;SDS011;3021;51.000;6.980;2023-05-29T09:58:49;12.85;;;4.00;;
5987;SDS011;3021;51.000;6.980;2023-05-29T10:01:16;12.27;;;3.20;;
5987;SDS011;3021;51.000;6.980;2023-05-29T10:03:42;13.25;;;3.38;;
5987;SDS011;3021;51.000;6.980;2023-05-29T10:06:08;9.90;;;3.65;;
5987;SDS011;3021;51.000;6.980;2023-05-29T10:08:42;11.48;;;3.75;;
5987;SDS011;3021;51.000;6.980;2023-05-29T10:11:14;12.45;;;3.53;;
5987;SDS011;3021;51.000;6.980;2023-05-29T10:13:43;14.20;;;3.90;;
5987;SDS011;3021;51.000;6.980;2023-05-29T10:16:14;9.30;;;3.80;;
5987;SDS011;3021;51.000;6.980;2023-05-29T10:18:43;10.23;;;3.60;;
5987;SDS011;3021;51.000;6.980;2023-05-29T10:21:14;10.98;;;3.75;;
5987;SDS011;3021;51.000;6.980;2023-05-29T10:23:42;11.40;;;4.00;;
5987;SDS011;3021;51.000;6.980;2023-05-29T10:26:20;12.20;;;3.40;;
5987;SDS011;3021;51.000;6.980;2023-05-29T10:34:39;10.13;;;3.58;;
5987;SDS011;3021;51.000;6.980;2023-05-29T10:40:02;10.27;;;3.70;;
5987;SDS011;3021;51.000;6.980;2023-05-29T10:42:40;9.90;;;4.32;;
5987;SDS011;3021;51.000;6.980;2023-05-29T10:45:06;10.90;;;4.22;;
5987;SDS011;3021;51.000;6.980;2023-05-29T10:47:31;11.98;;;4.10;;
5987;SDS011;3021;51.000;6.980;2023-05-29T10:49:59;10.85;;;4.20;;
5987;SDS011;3021;51.000;6.980;2023-05-29T10:52:34;11.95;;;4.30;;
5987;SDS011;3021;51.000;6.980;2023-05-29T10:55:00;11.45;;;4.00;;
5987;SDS011;3021;51.000;6.980;2023-05-29T10:57:29;12.18;;;4.30;;
5987;SDS011;3021;51.000;6.980;2023-05-29T11:00:15;12.70;;;4.20;;
5987;SDS011;3021;51.000;6.980;2023-05-29T11:02:43;9.60;;;3.72;;
5987;SDS011;3021;51.000;6.980;2023-05-29T11:05:20;11.65;;;3.72;;
5987;SDS011;3021;51.000;6.980;2023-05-29T11:13:15;14.23;;;4.15;;
5987;SDS011;3021;51.000;6.980;2023-05-29T11:16:03;12.93;;;3.97;;
5987;SDS011;3021;51.000;6.980;2023-05-29T11:18:29;11.13;;;3.70;;
5987;SDS011;3021;51.000;6.980;2023-05-29T11:20:57;13.85;;;4.65;;
5987;SDS011;3021;51.000;6.980;2023-05-29T11:23:26;11.80;;;4.03;;
5987;SDS011;3021;51.000;6.980;2023-05-29T11:25:56;16.90;;;4.60;;
5987;SDS011;3021;51.000;6.980;2023-05-29T11:28:24;13.02;;;4.63;;
5987;SDS011;3021;51.000;6.980;2023-05-29T11:30:49;8.93;;;3.85;;
5987;SDS011;3021;51.000;6.980;2023-05-29T11:33:25;12.75;;;3.97;;
5987;SDS011;3021;51.000;6.980;2023-05-29T11:35:56;10.43;;;4.25;;
5987;SDS011;3021;51.000;6.980;2023-05-29T11:38:26;9.83;;;3.70;;
5987;SDS011;3021;51.000;6.980;2023-05-29T11:40:55;12.05;;;4.10;;
5987;SDS011;3021;51.000;6.980;2023-05-29T11:43:21;14.35;;;4.32;;
5987;SDS011;3021;51.000;6.980;2023-05-29T11:45:47;8.40;;;3.92;;
5987;SDS011;3021;51.000;6.980;2023-05-29T11:48:12;9.38;;;4.13;;
5987;SDS011;3021;51.000;6.980;2023-05-29T11:50:37;12.48;;;4.60;;
5987;SDS011;3021;51.000;6.980;2023-05-29T11:53:05;11.18;;;4.03;;
5987;SDS011;3021;51.000;6.980;2023-05-29T11:55:32;13.40;;;3.92;;
5987;SDS011;3021;51.000;6.980;2023-05-29T11:57:58;12.73;;;4.45;;
5987;SDS011;3021;51.000;6.980;2023-05-29T12:00:32;9.18;;;4.03;;
5987;SDS011;3021;51.000;6.980;2023-05-29T12:03:02;13.80;;;4.07;;
5987;SDS011;3021;51.000;6.980;2023-05-29T12:05:29;12.57;;;4.18;;
5987;SDS011;3021;51.000;6.980;2023-05-29T12:07:56;11.85;;;3.63;;
5987;SDS011;3021;51.000;6.980;2023-05-29T12:10:22;12.38;;;4.60;;
5987;SDS011;3021;51.000;6.980;2023-05-29T12:12:54;10.50;;;3.70;;
5987;SDS011;3021;51.000;6.980;2023-05-29T12:15:21;12.95;;;3.95;;
5987;SDS011;3021;51.000;6.980;2023-05-29T12:17:48;11.00;;;3.72;;
5987;SDS011;3021;51.000;6.980;2023-05-29T12:20:15;13.43;;;3.63;;
5987;SDS011;3021;51.000;6.980;2023-05-29T12:22:42;8.32;;;3.33;;
5987;SDS011;3021;51.000;6.980;2023-05-29T12:25:15;12.18;;;3.72;;
5987;SDS011;3021;51.000;6.980;2023-05-29T12:27:45;9.60;;;3.38;;
5987;SDS011;3021;51.000;6.980;2023-05-29T12:32:41;9.88;;;3.78;;
5987;SDS011;3021;51.000;6.980;2023-05-29T12:35:12;11.48;;;3.83;;
5987;SDS011;3021;51.000;6.980;2023-05-29T12:40:11;8.77;;;3.53;;
5987;SDS011;3021;51.000;6.980;2023-05-29T12:42:39;10.65;;;3.60;;
5987;SDS011;3021;51.000;6.980;2023-05-29T12:45:06;11.02;;;3.47;;
5987;SDS011;3021;51.000;6.980;2023-05-29T12:47:32;10.65;;;3.50;;
5987;SDS011;3021;51.000;6.980;2023-05-29T12:49:58;12.32;;;3.72;;
5987;SDS011;3021;51.000;6.980;2023-05-29T12:52:23;13.63;;;3.92;;
5987;SDS011;3021;51.000;6.980;2023-05-29T12:54:49;10.32;;;4.10;;
5987;SDS011;3021;51.000;6.980;2023-05-29T12:57:14;9.65;;;3.15;;
5987;SDS011;3021;51.000;6.980;2023-05-29T12:59:39;12.85;;;3.55;;
5987;SDS011;3021;51.000;6.980;2023-05-29T13:02:05;12.40;;;3.85;;
5987;SDS011;3021;51.000;6.980;2023-05-29T13:04:33;11.15;;;3.30;;
5987;SDS011;3021;51.000;6.980;2023-05-29T13:06:58;11.27;;;3.92;;
5987;SDS011;3021;51.000;6.980;2023-05-29T13:09:24;11.55;;;3.55;;
5987;SDS011;3021;51.000;6.980;2023-05-29T13:11:50;13.77;;;4.18;;
5987;SDS011;3021;51.000;6.980;2023-05-29T13:14:15;10.32;;;3.50;;
5987;SDS011;3021;51.000;6.980;2023-05-29T13:16:40;8.45;;;3.55;;
5987;SDS011;3021;51.000;6.980;2023-05-29T13:19:06;8.68;;;3.53;;
5987;SDS011;3021;51.000;6.980;2023-05-29T13:21:31;11.88;;;3.75;;
5987;SDS011;3021;51.000;6.980;2023-05-29T13:23:57;7.53;;;3.38;;
5987;SDS011;3021;51.000;6.980;2023-05-29T13:26:23;10.55;;;3.70;;
5987;SDS011;3021;51.000;6.980;2023-05-29T13:28:48;9.00;;;3.30;;
5987;SDS011;3021;51.000;6.980;2023-05-29T13:31:16;10.57;;;4.00;;
5987;SDS011;3021;51.000;6.980;2023-05-29T13:33:43;10.07;;;3.78;;
5987;SDS011;3021;51.000;6.980;2023-05-29T13:36:08;8.82;;;3.53;;
5987;SDS011;3021;51.000;6.980;2023-05-29T13:38:34;11.90;;;3.40;;
5987;SDS011;3021;51.000;6.980;2023-05-29T13:40:59;12.75;;;3.30;;
5987;SDS011;3021;51.000;6.980;2023-05-29T13:43:24;10.50;;;3.55;;
5987;SDS011;3021;51.000;6.980;2023-05-29T13:45:50;9.15;;;3.33;;
5987;SDS011;3021;51.000;6.980;2023-05-29T13:48:15;7.82;;;3.22;;
5987;SDS011;3021;51.000;6.980;2023-05-29T13:50:40;7.30;;;2.88;;
5987;SDS011;3021;51.000;6.980;2023-05-29T13:53:05;9.93;;;3.88;;
5987;SDS011;3021;51.000;6.980;2023-05-29T13:55:31;11.63;;;3.90;;
5987;SDS011;3021;51.000;6.980;2023-05-29T13:57:56;8.90;;;3.45;;
5987;SDS011;3021;51.000;6.980;2023-05-29T14:00:22;10.25;;;3.30;;
5987;SDS011;3021;51.000;6.980;2023-05-29T14:02:48;6.95;;;3.22;;
5987;SDS011;3021;51.000;6.980;2023-05-29T14:05:13;11.95;;;3.63;;
5987;SDS011;3021;51.000;6.980;2023-05-29T14:07:38;9.77;;;3.58;;
5987;SDS011;3021;51.000;6.980;2023-05-29T14:10:04;11.75;;;3.13;;
5987;SDS011;3021;51.000;6.980;2023-05-29T14:12:30;10.32;;;4.20;;
5987;SDS011;3021;51.000;6.980;2023-05-29T14:14:56;13.18;;;4.15;;
5987;SDS011;3021;51.000;6.980;2023-05-29T14:17:21;13.90;;;4.90;;
5987;SDS011;3021;51.000;6.980;2023-05-29T14:19:46;12.60;;;4.32;;
5987;SDS011;3021;51.000;6.980;2023-05-29T14:22:12;9.70;;;3.28;;
5987;SDS011;3021;51.000;6.980;2023-05-29T14:24:38;12.25;;;3.70;;
5987;SDS011;3021;51.000;6.980;2023-05-29T14:27:03;7.45;;;3.47;;
5987;SDS011;3021;51.000;6.980;2023-05-29T14:29:29;10.95;;;3.30;;
5987;SDS011;3021;51.000;6.980;2023-05-29T14:31:54;8.95;;;3.55;;
5987;SDS011;3021;51.000;6.980;2023-05-29T14:34:19;10.68;;;3.33;;
5987;SDS011;3021;51.000;6.980;2023-05-29T14:36:45;8.43;;;3.50;;
5987;SDS011;3021;51.000;6.980;2023-05-29T14:39:10;10.02;;;3.72;;
5987;SDS011;3021;51.000;6.980;2023-05-29T14:41:37;9.45;;;2.97;;
5987;SDS011;3021;51.000;6.980;2023-05-29T14:44:02;10.15;;;3.47;;
5987;SDS011;3021;51.000;6.980;2023-05-29T14:46:28;9.02;;;3.67;;
5987;SDS011;3021;51.000;6.980;2023-05-29T14:48:56;8.25;;;3.60;;
5987;SDS011;3021;51.000;6.980;2023-05-29T14:51:25;11.07;;;3.88;;
5987;SDS011;3021;51.000;6.980;2023-05-29T14:53:50;8.68;;;3.30;;
5987;SDS011;3021;51.000;6.980;2023-05-29T14:56:16;12.05;;;3.65;;
5987;SDS011;3021;51.000;6.980;2023-05-29T14:58:44;10.82;;;3.60;;
5987;SDS011;3021;51.000;6.980;2023-05-29T15:01:10;12.32;;;4.18;;
5987;SDS011;3021;51.000;6.980;2023-05-29T15:03:35;9.88;;;3.45;;
5987;SDS011;3021;51.000;6.980;2023-05-29T15:06:01;11.80;;;3.70;;
5987;SDS011;3021;51.000;6.980;2023-05-29T15:08:28;9.65;;;3.50;;
5987;SDS011;3021;51.000;6.980;2023-05-29T15:10:56;7.10;;;3.25;;
5987;SDS011;3021;51.000;6.980;2023-05-29T15:13:21;7.57;;;3.40;;
5987;SDS011;3021;51.000;6.980;2023-05-29T15:15:47;14.38;;;3.72;;
5987;SDS011;3021;51.000;6.980;2023-05-29T15:18:12;11.23;;;3.78;;
5987;SDS011;3021;51.000;6.980;2023-05-29T15:20:37;11.80;;;3.38;;
5987;SDS011;3021;51.000;6.980;2023-05-29T15:23:03;10.43;;;3.50;;
5987;SDS011;3021;51.000;6.980;2023-05-29T15:25:28;9.88;;;3.53;;
5987;SDS011;3021;51.000;6.980;2023-05-29T15:27:53;8.02;;;3.15;;